Fischer, Texas
Current Conditions -  °F | °C
As of 12:41 PM on Thursday 30 Oct 2014 (Local Time) from KBAZ Reporting Station
Broken Clouds Broken Clouds  
Wind Chill: 76°   Ceiling: 2000
Heat Index: 76°   Visibility: 10mi
Dew Point: 60°   Wind: 5mph
Humidity: 58%   Direction: NA
Pressure: 30.13"   Gusts: NA
Location:  29.98°N, 98.27°W
Report Text: KBAZ 301741Z VRB04KT 10SM BKN020 24/16 A3013 RMK AO2 T02440156
Loading
Personal Weather Stations






























Interactive Weather Map
Tropical Storm Tracking
New forecast layout! Learn more

10-Day Weather Forecast

Advertisements
Track Severe Weather on mobile